createdAt,value
2019-03-01T00:00:28.615Z,75.60
2019-03-01T00:01:28.602Z,75.90
2019-03-01T00:02:28.594Z,68.00
2019-03-01T00:03:28.617Z,68.60
2019-03-01T00:04:28.565Z,73.10
2019-03-01T00:05:28.561Z,73.90
2019-03-01T00:06:28.545Z,73.70
2019-03-01T00:07:28.524Z,74.70
2019-03-01T00:08:28.523Z,76.30
2019-03-01T00:09:28.535Z,76.50
2019-03-01T00:10:28.509Z,76.80
2019-03-01T00:11:28.486Z,77.80
2019-03-01T00:12:28.475Z,77.40
2019-03-01T00:13:28.471Z,76.20
2019-03-01T00:14:29.153Z,78.70
2019-03-01T00:15:28.457Z,81.40
2019-03-01T00:16:28.433Z,78.80
2019-03-01T00:17:28.421Z,85.40
2019-03-01T00:18:28.417Z,80.30
2019-03-01T00:19:28.435Z,84.50
2019-03-01T00:20:28.389Z,84.20
2019-03-01T00:21:28.385Z,82.00
2019-03-01T00:22:28.382Z,84.80
2019-03-01T00:23:28.385Z,87.20
2019-03-01T00:24:28.348Z,91.50
2019-03-01T00:25:28.337Z,89.50
2019-03-01T00:26:31.151Z,94.70
2019-03-01T00:27:28.311Z,91.70
2019-03-01T00:28:28.337Z,94.30
2019-03-01T00:29:28.287Z,93.30
2019-03-01T00:30:28.285Z,95.30
2019-03-01T00:31:29.101Z,94.90
2019-03-01T00:32:28.257Z,95.70
2019-03-01T00:33:28.249Z,97.20
2019-03-01T00:34:28.266Z,97.20
2019-03-01T00:35:28.228Z,97.90
2019-03-01T00:36:28.213Z,99.80
2019-03-01T00:37:28.209Z,98.90
2019-03-01T00:38:28.190Z,97.40
2019-03-01T00:39:28.179Z,98.60
2019-03-01T00:40:28.201Z,92.40
2019-03-01T00:41:28.159Z,93.40
2019-03-01T00:42:28.143Z,91.00
2019-03-01T00:43:28.144Z,91.90
2019-03-01T00:44:28.157Z,96.70
2019-03-01T00:45:28.116Z,101.50
2019-03-01T00:46:28.107Z,93.90
2019-03-01T00:47:28.093Z,97.40
2019-03-01T00:48:28.087Z,100.20
2019-03-01T00:50:27.101Z,103.60
2019-03-01T00:51:28.050Z,104.00
2019-03-01T00:52:28.032Z,105.10
2019-03-01T00:53:28.033Z,107.00
2019-03-01T00:54:28.015Z,105.80
2019-03-01T00:55:28.049Z,110.80
2019-03-01T00:56:27.997Z,112.30
2019-03-01T00:57:27.980Z,116.90
2019-03-01T00:58:27.977Z,120.40
2019-03-01T00:59:27.961Z,118.00
2019-03-01T01:00:27.945Z,114.10
2019-03-01T01:01:27.953Z,123.40
2019-03-01T01:02:27.960Z,120.30
2019-03-01T01:03:27.918Z,132.50
2019-03-01T01:04:27.903Z,130.20
2019-03-01T01:05:27.906Z,126.60
2019-03-01T01:06:27.913Z,124.00
2019-03-01T01:07:27.875Z,127.40
2019-03-01T01:08:27.861Z,126.50
2019-03-01T01:09:27.849Z,124.50
2019-03-01T01:10:27.843Z,126.90
2019-03-01T01:11:27.882Z,126.90
2019-03-01T01:12:27.816Z,127.90
2019-03-01T01:13:27.802Z,122.80
2019-03-01T01:14:30.848Z,127.30
2019-03-01T01:15:27.781Z,128.10
2019-03-01T01:16:27.804Z,128.90
2019-03-01T01:17:27.760Z,127.70
2019-03-01T01:18:27.755Z,128.00
2019-03-01T01:19:27.775Z,130.00
2019-03-01T01:20:27.739Z,130.70
2019-03-01T01:21:27.725Z,128.70
2019-03-01T01:22:27.711Z,130.70
2019-03-01T01:23:27.700Z,131.60
2019-03-01T01:24:27.714Z,140.10
2019-03-01T01:25:27.674Z,142.30
2019-03-01T01:26:27.666Z,142.50
2019-03-01T01:27:27.657Z,139.50
2019-03-01T01:28:27.641Z,153.10
2019-03-01T01:29:27.637Z,149.90
2019-03-01T01:30:27.652Z,144.90
2019-03-01T01:31:27.616Z,142.40
2019-03-01T01:32:27.604Z,147.90
2019-03-01T01:33:27.589Z,147.90
2019-03-01T01:34:27.577Z,145.50
2019-03-01T01:35:27.572Z,148.00
2019-03-01T01:36:27.596Z,151.80
2019-03-01T01:37:27.544Z,146.40
2019-03-01T01:38:27.533Z,152.60
2019-03-01T01:39:28.088Z,159.60
2019-03-01T01:40:27.514Z,161.20
2019-03-01T01:41:27.504Z,157.90
2019-03-01T01:42:27.515Z,169.30
2019-03-01T01:43:27.482Z,168.20
2019-03-01T01:44:27.470Z,165.40
2019-03-01T01:45:27.458Z,169.40
2019-03-01T01:46:27.489Z,173.40
2019-03-01T01:47:27.463Z,169.80
2019-03-01T01:48:27.455Z,177.50
2019-03-01T01:49:27.425Z,190.50
2019-03-01T01:50:28.093Z,183.90
2019-03-01T01:51:27.402Z,187.40
2019-03-01T01:52:28.080Z,188.00
2019-03-01T01:53:30.078Z,190.30
2019-03-01T01:54:27.356Z,187.80
2019-03-01T01:55:27.346Z,193.00
2019-03-01T01:56:27.624Z,192.60
2019-03-01T01:57:27.322Z,191.70
2019-03-01T01:58:27.312Z,199.60
2019-03-01T01:59:27.299Z,208.00
2019-03-01T02:00:27.291Z,196.00
2019-03-01T02:01:27.310Z,199.40
2019-03-01T02:02:27.291Z,200.50
2019-03-01T02:03:27.254Z,208.20
2019-03-01T02:04:27.242Z,202.70
2019-03-01T02:05:27.238Z,203.30
2019-03-01T02:06:27.222Z,203.20
2019-03-01T02:07:27.248Z,211.90
2019-03-01T02:08:27.199Z,203.40
2019-03-01T02:09:27.196Z,191.30
2019-03-01T02:10:27.202Z,206.00
2019-03-01T02:11:27.173Z,202.60
2019-03-01T02:12:28.080Z,206.40
2019-03-01T02:13:27.146Z,215.40
2019-03-01T02:14:27.134Z,222.20
2019-03-01T02:15:27.136Z,209.30
2019-03-01T02:16:27.107Z,200.50
2019-03-01T02:17:27.300Z,199.90
2019-03-01T02:18:27.100Z,205.00
2019-03-01T02:19:27.082Z,206.40
2019-03-01T02:20:27.070Z,209.60
2019-03-01T02:21:27.584Z,204.80
2019-03-01T02:22:27.049Z,207.60
2019-03-01T02:23:27.062Z,205.00
2019-03-01T02:24:27.024Z,207.30
2019-03-01T02:25:27.015Z,206.10
2019-03-01T02:26:27.000Z,211.80
2019-03-01T02:27:26.996Z,195.10
2019-03-01T02:28:27.016Z,192.70
2019-03-01T02:29:26.974Z,195.70
2019-03-01T02:30:26.958Z,216.70
2019-03-01T02:31:26.959Z,196.50
2019-03-01T02:32:26.940Z,207.40
2019-03-01T02:33:26.952Z,206.70
2019-03-01T02:34:26.955Z,196.90
2019-03-01T02:35:26.908Z,187.80
2019-03-01T02:36:26.890Z,190.30
2019-03-01T02:37:26.876Z,194.10
2019-03-01T02:38:26.872Z,188.10
2019-03-01T02:39:26.869Z,192.80
2019-03-01T02:40:26.901Z,194.60
2019-03-01T02:41:26.841Z,199.70
2019-03-01T02:42:26.827Z,194.30
2019-03-01T02:43:26.819Z,192.20
2019-03-01T02:44:26.810Z,196.60
2019-03-01T02:46:25.815Z,180.50
2019-03-01T02:47:26.777Z,185.80
2019-03-01T02:48:26.763Z,176.80
2019-03-01T02:49:26.765Z,186.30
2019-03-01T02:50:26.747Z,184.10
2019-03-01T02:52:25.717Z,203.10
2019-03-01T02:53:26.711Z,181.10
2019-03-01T02:54:26.698Z,213.60
2019-03-01T02:55:26.696Z,192.10
2019-03-01T02:56:26.717Z,193.70
2019-03-01T02:57:26.662Z,195.30
2019-03-01T02:58:26.658Z,197.90
2019-03-01T02:59:26.653Z,198.40
2019-03-01T03:00:26.636Z,193.20
2019-03-01T03:01:26.619Z,202.00
2019-03-01T03:02:26.639Z,193.80
2019-03-01T03:03:26.595Z,214.50
2019-03-01T03:04:26.588Z,215.60
2019-03-01T03:05:26.576Z,215.90
2019-03-01T03:06:26.603Z,225.50
2019-03-01T03:07:26.560Z,209.80
2019-03-01T03:08:26.544Z,215.60
2019-03-01T03:09:26.530Z,230.30
2019-03-01T03:10:26.525Z,235.00
2019-03-01T03:11:26.517Z,237.70
2019-03-01T03:12:26.535Z,238.60
2019-03-01T03:13:26.487Z,224.60
2019-03-01T03:14:26.475Z,239.30
2019-03-01T03:15:26.467Z,231.80
2019-03-01T03:16:26.457Z,228.10
2019-03-01T03:17:26.447Z,243.90
2019-03-01T03:18:26.496Z,247.00
2019-03-01T03:19:26.432Z,226.10
2019-03-01T03:20:26.415Z,246.10
2019-03-01T03:21:26.440Z,234.90
2019-03-01T03:22:26.398Z,213.80
2019-03-01T03:23:26.379Z,229.80
2019-03-01T03:24:26.369Z,228.50
2019-03-01T03:25:26.356Z,241.10
2019-03-01T03:26:26.378Z,214.50
2019-03-01T03:27:26.338Z,227.50
2019-03-01T03:28:26.339Z,249.40
2019-03-01T03:29:26.318Z,232.20
2019-03-01T03:30:26.307Z,240.50
2019-03-01T03:31:26.289Z,232.80
2019-03-01T03:32:27.087Z,226.00
2019-03-01T03:33:26.269Z,279.50
2019-03-01T03:34:26.265Z,258.70
2019-03-01T03:35:26.252Z,214.00
2019-03-01T03:36:26.237Z,226.20
2019-03-01T03:37:26.247Z,228.70
2019-03-01T03:38:26.253Z,235.00
2019-03-01T03:39:26.210Z,238.10
2019-03-01T03:40:26.207Z,235.90
2019-03-01T03:42:25.175Z,246.80
2019-03-01T03:43:26.161Z,253.60
2019-03-01T03:44:26.144Z,255.20
2019-03-01T03:45:26.141Z,253.90
2019-03-01T03:46:26.130Z,211.50
2019-03-01T03:47:26.143Z,210.80
2019-03-01T03:48:27.052Z,196.40
2019-03-01T03:49:26.090Z,198.10
2019-03-01T03:50:26.087Z,207.70
2019-03-01T03:51:26.083Z,220.20
2019-03-01T03:52:26.060Z,229.30
2019-03-01T03:53:26.090Z,251.50
2019-03-01T03:54:26.041Z,251.40
2019-03-01T03:55:26.028Z,253.30
2019-03-01T03:56:26.021Z,224.00
2019-03-01T03:57:26.005Z,213.30
2019-03-01T03:58:25.997Z,235.90
2019-03-01T03:59:26.008Z,223.80
2019-03-01T04:00:25.970Z,250.50
2019-03-01T04:01:25.968Z,241.00
2019-03-01T04:02:26.546Z,244.90
2019-03-01T04:03:25.945Z,249.80
2019-03-01T04:04:25.932Z,238.90
2019-03-01T04:05:26.089Z,259.70
2019-03-01T04:06:25.908Z,233.10
2019-03-01T04:07:25.894Z,254.80
2019-03-01T04:08:25.889Z,239.50
2019-03-01T04:09:25.999Z,236.90
2019-03-01T04:10:25.862Z,231.20
2019-03-01T04:11:25.849Z,233.90
2019-03-01T04:12:25.847Z,239.20
2019-03-01T04:13:25.826Z,249.40
2019-03-01T04:14:25.834Z,252.90
2019-03-01T04:15:25.840Z,261.70
2019-03-01T04:16:25.798Z,250.90
2019-03-01T04:17:25.790Z,222.80
2019-03-01T04:18:25.816Z,217.70
2019-03-01T04:19:25.797Z,197.40
2019-03-01T04:20:25.751Z,208.60
2019-03-01T04:21:25.766Z,217.00
2019-03-01T04:22:25.741Z,219.90
2019-03-01T04:23:25.724Z,217.90
2019-03-01T04:24:25.717Z,227.00
2019-03-01T04:25:26.542Z,237.80
2019-03-01T04:26:25.702Z,216.20
2019-03-01T04:27:25.678Z,218.90
2019-03-01T04:28:25.664Z,218.90
2019-03-01T04:29:25.777Z,219.70
2019-03-01T04:30:25.672Z,220.00
2019-03-01T04:31:25.632Z,197.10
2019-03-01T04:32:25.622Z,197.20
2019-03-01T04:33:25.612Z,197.60
2019-03-01T04:34:25.625Z,191.90
2019-03-01T04:35:25.588Z,194.20
2019-03-01T04:36:25.615Z,171.90
2019-03-01T04:37:25.572Z,183.00
2019-03-01T04:38:25.560Z,178.40
2019-03-01T04:39:25.546Z,175.50
2019-03-01T04:40:25.538Z,178.70
2019-03-01T04:41:25.522Z,187.30
2019-03-01T04:42:25.601Z,169.00
2019-03-01T04:43:25.511Z,177.10
2019-03-01T04:44:25.494Z,186.80
2019-03-01T04:45:25.481Z,160.60
2019-03-01T04:46:25.477Z,160.70
2019-03-01T04:47:25.470Z,183.10
2019-03-01T04:48:25.473Z,184.80
2019-03-01T04:49:25.435Z,167.70
2019-03-01T04:50:25.428Z,176.20
2019-03-01T04:51:25.415Z,181.70
2019-03-01T04:52:25.444Z,171.40
2019-03-01T04:53:25.401Z,169.30
2019-03-01T04:54:25.407Z,170.60
2019-03-01T04:55:25.381Z,166.30
2019-03-01T04:56:25.357Z,165.60
2019-03-01T04:57:25.348Z,166.50
2019-03-01T04:58:25.338Z,156.60
2019-03-01T04:59:25.356Z,160.70
2019-03-01T05:00:25.315Z,158.20
2019-03-01T05:01:28.052Z,157.50
2019-03-01T05:02:25.294Z,150.90
2019-03-01T05:03:25.285Z,162.90
2019-03-01T05:04:25.274Z,163.30
2019-03-01T05:05:25.296Z,165.70
2019-03-01T05:06:25.252Z,165.30
2019-03-01T05:07:25.251Z,159.10
2019-03-01T05:08:25.226Z,160.70
2019-03-01T05:09:25.216Z,163.30
2019-03-01T05:10:25.215Z,171.90
2019-03-01T05:11:25.203Z,167.90
2019-03-01T05:12:25.181Z,182.10
2019-03-01T05:13:25.211Z,171.40
2019-03-01T05:14:25.163Z,168.90
2019-03-01T05:15:25.157Z,175.50
2019-03-01T05:16:25.149Z,170.80
2019-03-01T05:17:25.127Z,160.10
2019-03-01T05:18:25.157Z,168.30
2019-03-01T05:19:25.104Z,157.00
2019-03-01T05:20:25.099Z,170.70
2019-03-01T05:21:25.112Z,184.00
2019-03-01T05:22:25.110Z,171.70
2019-03-01T05:23:25.065Z,172.30
2019-03-01T05:24:25.066Z,173.30
2019-03-01T05:25:25.045Z,161.40
2019-03-01T05:26:27.524Z,170.40
2019-03-01T05:27:28.026Z,172.10
2019-03-01T05:28:25.005Z,169.30
2019-03-01T05:29:25.000Z,180.80
2019-03-01T05:30:24.993Z,177.60
2019-03-01T05:31:25.005Z,166.00
2019-03-01T05:32:24.966Z,168.80
2019-03-01T05:33:24.951Z,169.90
2019-03-01T05:34:24.940Z,153.00
2019-03-01T05:35:24.931Z,163.30
2019-03-01T05:36:24.925Z,153.10
2019-03-01T05:37:24.913Z,151.70
2019-03-01T05:38:24.926Z,155.30
2019-03-01T05:39:24.897Z,145.70
2019-03-01T05:40:24.879Z,147.00
2019-03-01T05:42:23.892Z,138.40
2019-03-01T05:43:24.847Z,138.70
2019-03-01T05:44:24.829Z,135.20
2019-03-01T05:45:24.824Z,143.80
2019-03-01T05:46:24.809Z,145.30
2019-03-01T05:47:24.836Z,136.60
2019-03-01T05:48:24.792Z,138.10
2019-03-01T05:49:24.792Z,130.30
2019-03-01T05:50:24.772Z,118.50
2019-03-01T05:51:24.762Z,140.30
2019-03-01T05:52:24.748Z,140.80
2019-03-01T05:53:26.017Z,149.10
2019-03-01T05:54:25.516Z,153.50
2019-03-01T05:55:24.712Z,152.60
2019-03-01T05:56:24.706Z,152.30
2019-03-01T05:57:24.745Z,178.60
2019-03-01T05:58:24.682Z,159.00
2019-03-01T05:59:24.667Z,161.10
2019-03-01T06:00:24.656Z,153.80
2019-03-01T06:01:24.651Z,148.70
2019-03-01T06:02:24.644Z,149.30
2019-03-01T06:03:24.667Z,148.50
2019-03-01T06:04:24.615Z,134.80
2019-03-01T06:05:27.513Z,137.60
2019-03-01T06:06:24.595Z,127.40
2019-03-01T06:07:27.515Z,129.30
2019-03-01T06:08:24.571Z,126.50
2019-03-01T06:09:24.585Z,130.60
2019-03-01T06:10:24.549Z,124.30
2019-03-01T06:11:24.537Z,125.40
2019-03-01T06:12:24.553Z,119.70
2019-03-01T06:13:25.005Z,114.20
2019-03-01T06:15:23.499Z,117.30
2019-03-01T06:16:24.489Z,113.90
2019-03-01T06:17:25.005Z,116.60
2019-03-01T06:18:24.495Z,115.90
2019-03-01T06:19:24.507Z,120.80
2019-03-01T06:20:24.437Z,134.10
2019-03-01T06:21:24.442Z,133.80
2019-03-01T06:22:24.423Z,123.80
2019-03-01T06:23:24.404Z,129.50
2019-03-01T06:24:24.391Z,120.00
2019-03-01T06:26:23.373Z,116.80
2019-03-01T06:27:24.369Z,118.50
2019-03-01T06:28:25.033Z,125.60
2019-03-01T06:29:24.342Z,121.50
2019-03-01T06:30:24.356Z,117.40
2019-03-01T06:31:24.321Z,115.20
2019-03-01T06:32:24.308Z,111.10
2019-03-01T06:33:24.297Z,105.80
2019-03-01T06:34:25.005Z,109.30
2019-03-01T06:35:24.270Z,107.00
2019-03-01T06:36:24.297Z,94.10
2019-03-01T06:37:24.249Z,92.90
2019-03-01T06:38:24.242Z,90.00
2019-03-01T06:39:24.231Z,89.30
2019-03-01T06:40:24.218Z,87.50
2019-03-01T06:41:24.217Z,78.30
2019-03-01T06:42:24.239Z,79.80
2019-03-01T06:44:23.172Z,58.30
2019-03-01T06:45:24.165Z,45.30
2019-03-01T06:46:24.163Z,41.90
2019-03-01T06:47:24.150Z,37.60
2019-03-01T06:48:24.160Z,40.70
2019-03-01T06:49:24.137Z,39.10
2019-03-01T06:50:24.107Z,37.80
2019-03-01T06:51:28.828Z,44.50
2019-03-01T06:52:24.207Z,42.60
2019-03-01T06:53:24.096Z,35.10
2019-03-01T06:54:24.065Z,29.50
2019-03-01T06:55:25.007Z,34.00
2019-03-01T06:56:24.045Z,29.10
2019-03-01T06:57:24.031Z,26.50
2019-03-01T06:58:24.045Z,28.10
2019-03-01T06:59:24.017Z,25.40
2019-03-01T07:00:24.005Z,27.90
2019-03-01T07:01:23.991Z,25.50
2019-03-01T07:02:23.997Z,30.70
2019-03-01T07:03:24.491Z,24.30
2019-03-01T07:04:23.955Z,28.30
2019-03-01T07:05:23.951Z,26.70
2019-03-01T07:06:23.930Z,30.90
2019-03-01T07:07:23.931Z,28.70
2019-03-01T07:08:24.038Z,27.50
2019-03-01T07:09:23.903Z,28.60
2019-03-01T07:10:23.921Z,27.50
2019-03-01T07:11:23.879Z,32.10
2019-03-01T07:12:23.874Z,25.30
2019-03-01T07:13:23.857Z,22.00
2019-03-01T07:14:23.851Z,28.90
2019-03-01T07:15:23.840Z,23.80
2019-03-01T07:16:23.870Z,26.20
2019-03-01T07:17:23.813Z,22.30
2019-03-01T07:18:23.803Z,22.20
2019-03-01T07:19:23.804Z,24.90
2019-03-01T07:20:23.805Z,19.20
2019-03-01T07:21:23.767Z,20.50
2019-03-01T07:22:23.764Z,19.70
2019-03-01T07:23:24.492Z,20.20
2019-03-01T07:24:23.868Z,22.00
2019-03-01T07:25:23.763Z,21.20
2019-03-01T07:26:23.724Z,20.30
2019-03-01T07:27:23.707Z,17.50
2019-03-01T07:28:23.691Z,17.50
2019-03-01T07:29:23.690Z,15.90
2019-03-01T07:30:23.721Z,15.10
2019-03-01T07:31:23.661Z,15.10
2019-03-01T07:32:24.482Z,15.90
2019-03-01T07:33:23.641Z,18.10
2019-03-01T07:34:26.493Z,16.00
2019-03-01T07:35:23.617Z,13.50
2019-03-01T07:36:23.655Z,12.80
2019-03-01T07:37:23.616Z,12.30
2019-03-01T07:38:23.623Z,14.40
2019-03-01T07:39:23.576Z,12.90
2019-03-01T07:40:23.563Z,13.80
2019-03-01T07:41:23.547Z,10.80
2019-03-01T07:42:23.542Z,12.10
2019-03-01T07:43:23.561Z,10.20
2019-03-01T07:44:23.521Z,12.10
2019-03-01T07:45:23.511Z,11.40
2019-03-01T07:46:23.509Z,11.70
2019-03-01T07:47:23.483Z,11.40
2019-03-01T07:49:22.462Z,10.40
2019-03-01T07:50:25.986Z,11.50
2019-03-01T07:51:23.437Z,11.00
2019-03-01T07:52:23.426Z,10.30
2019-03-01T07:53:23.421Z,11.50
2019-03-01T07:54:25.028Z,9.80
2019-03-01T07:55:24.999Z,16.30
2019-03-01T07:57:24.984Z,11.70
2019-03-01T07:58:26.806Z,11.10
2019-03-01T07:59:24.096Z,11.00
2019-03-01T08:00:23.396Z,10.90
2019-03-01T08:01:25.742Z,10.60
2019-03-01T08:02:23.323Z,10.30
2019-03-01T08:03:23.313Z,11.10
2019-03-01T08:04:23.684Z,12.70
2019-03-01T08:05:23.283Z,11.10
2019-03-01T08:06:23.283Z,11.10
2019-03-01T08:07:23.636Z,11.50
2019-03-01T08:08:23.311Z,11.60
2019-03-01T08:09:23.254Z,11.20
2019-03-01T08:10:23.492Z,12.30
2019-03-01T08:11:23.249Z,11.00
2019-03-01T08:12:25.981Z,11.60
2019-03-01T08:14:24.684Z,12.60
2019-03-01T08:15:23.183Z,11.60
2019-03-01T08:16:25.085Z,11.30
2019-03-01T08:17:23.153Z,11.90
2019-03-01T08:18:23.163Z,11.90
2019-03-01T08:19:23.622Z,11.50
2019-03-01T08:20:23.119Z,12.00
2019-03-01T08:21:23.137Z,13.20
2019-03-01T08:23:24.975Z,12.40
2019-03-01T08:24:23.076Z,13.40
2019-03-01T08:26:22.054Z,12.80
2019-03-01T08:27:25.199Z,13.00
2019-03-01T08:28:23.164Z,15.20
2019-03-01T08:29:23.029Z,13.20
2019-03-01T08:30:23.030Z,13.50
2019-03-01T08:31:23.035Z,13.20
2019-03-01T08:32:22.991Z,14.80
2019-03-01T08:33:22.986Z,14.00
2019-03-01T08:34:22.968Z,13.10
2019-03-01T08:35:25.321Z,13.40
2019-03-01T08:36:22.970Z,13.50
2019-03-01T08:37:22.934Z,14.90
2019-03-01T08:38:25.529Z,14.00
2019-03-01T08:39:22.923Z,15.80
2019-03-01T08:40:22.911Z,12.90
2019-03-01T08:41:24.970Z,15.00
2019-03-01T08:42:22.921Z,15.00
2019-03-01T08:43:22.871Z,13.40
2019-03-01T08:44:24.130Z,13.80
2019-03-01T08:45:22.848Z,14.10
2019-03-01T08:46:22.866Z,13.10
2019-03-01T08:47:24.499Z,15.20
2019-03-01T08:48:22.851Z,13.70
2019-03-01T08:49:22.810Z,15.40
2019-03-01T08:50:22.802Z,13.30
2019-03-01T08:51:26.739Z,15.50
2019-03-01T08:52:22.779Z,12.60
2019-03-01T08:53:25.471Z,15.80
2019-03-01T08:54:26.008Z,15.20
2019-03-01T08:55:25.461Z,14.40
2019-03-01T08:56:26.307Z,14.10
2019-03-01T08:57:26.598Z,16.40
2019-03-01T08:58:22.704Z,15.70
2019-03-01T08:59:22.689Z,14.60
2019-03-01T09:00:23.119Z,15.50
2019-03-01T09:01:22.673Z,14.50
2019-03-01T09:02:22.693Z,16.70
2019-03-01T09:03:23.146Z,14.70
2019-03-01T09:04:22.636Z,15.20
2019-03-01T09:05:22.634Z,15.80
2019-03-01T09:06:22.648Z,14.30
2019-03-01T09:07:22.607Z,15.80
2019-03-01T09:08:22.923Z,15.20
2019-03-01T09:09:22.582Z,16.80
2019-03-01T09:10:22.587Z,15.70
2019-03-01T09:11:25.458Z,15.30
2019-03-01T09:12:22.574Z,15.80
2019-03-01T09:13:22.538Z,16.70
2019-03-01T09:14:25.518Z,16.50
2019-03-01T09:15:22.527Z,16.00
2019-03-01T09:16:22.693Z,16.90
2019-03-01T09:17:22.500Z,17.20
2019-03-01T09:18:22.481Z,17.90
2019-03-01T09:19:25.399Z,17.30
2019-03-01T09:20:22.462Z,18.20
2019-03-01T09:21:22.456Z,16.90
2019-03-01T09:22:24.165Z,17.40
2019-03-01T09:23:26.440Z,17.40
2019-03-01T09:24:25.644Z,18.20
2019-03-01T09:25:22.410Z,18.50
2019-03-01T09:26:22.435Z,18.40
2019-03-01T09:27:22.802Z,19.10
2019-03-01T09:28:22.375Z,18.30
2019-03-01T09:29:22.367Z,18.60
2019-03-01T09:30:22.369Z,18.70
2019-03-01T09:31:22.960Z,17.90
2019-03-01T09:32:22.375Z,18.40
2019-03-01T09:33:22.995Z,18.10
2019-03-01T09:34:22.309Z,18.40
2019-03-01T09:35:22.296Z,17.90
2019-03-01T09:36:22.296Z,17.90
2019-03-01T09:37:22.299Z,17.80
2019-03-01T09:38:23.012Z,18.50
2019-03-01T09:39:22.249Z,17.80
2019-03-01T09:40:22.324Z,18.70
2019-03-01T09:41:22.261Z,16.40
2019-03-01T09:42:22.234Z,17.40
2019-03-01T09:43:24.669Z,16.90
2019-03-01T09:44:22.205Z,16.80
2019-03-01T09:45:22.188Z,16.30
2019-03-01T09:46:24.302Z,15.50
2019-03-01T09:47:22.196Z,16.70
2019-03-01T09:48:22.163Z,15.20
2019-03-01T09:49:24.393Z,16.20
2019-03-01T09:50:22.155Z,17.80
2019-03-01T09:51:22.137Z,15.20
2019-03-01T09:52:23.528Z,15.20
2019-03-01T09:54:21.124Z,14.90
2019-03-01T09:55:22.087Z,14.90
2019-03-01T09:56:24.170Z,14.90
2019-03-01T09:57:22.058Z,14.80
2019-03-01T09:58:22.050Z,15.40
2019-03-01T09:59:22.125Z,15.90
2019-03-01T10:00:22.025Z,15.00
2019-03-01T10:01:24.950Z,15.40
2019-03-01T10:02:24.963Z,14.30
2019-03-01T10:03:22.011Z,15.20
2019-03-01T10:04:21.984Z,14.80
2019-03-01T10:05:22.021Z,13.70
2019-03-01T10:06:21.980Z,14.80
2019-03-01T10:07:21.968Z,14.10
2019-03-01T10:08:21.948Z,13.50
2019-03-01T10:09:21.934Z,13.90
2019-03-01T10:10:21.930Z,13.80
2019-03-01T10:11:21.919Z,15.10
2019-03-01T10:12:22.004Z,12.90
2019-03-01T10:13:24.471Z,13.30
2019-03-01T10:14:21.875Z,13.50
2019-03-01T10:15:21.864Z,13.00
2019-03-01T10:16:21.858Z,13.50
2019-03-01T10:17:21.865Z,13.50
2019-03-01T10:18:21.881Z,13.90
2019-03-01T10:19:21.828Z,13.50
2019-03-01T10:20:21.808Z,13.70
2019-03-01T10:21:21.811Z,12.90
2019-03-01T10:22:21.873Z,13.80
2019-03-01T10:23:22.508Z,13.80
2019-03-01T10:24:21.762Z,13.70
2019-03-01T10:25:21.756Z,14.60
2019-03-01T10:26:21.747Z,13.70
2019-03-01T10:27:21.764Z,14.00
2019-03-01T10:28:21.755Z,14.90
2019-03-01T10:29:21.746Z,14.60
2019-03-01T10:30:21.711Z,14.70
2019-03-01T10:31:24.586Z,14.50
2019-03-01T10:32:21.704Z,15.80
2019-03-01T10:33:21.697Z,15.30
2019-03-01T10:34:21.717Z,15.10
2019-03-01T10:35:21.649Z,15.10
2019-03-01T10:37:20.687Z,16.90
2019-03-01T10:38:21.645Z,16.30
2019-03-01T10:39:21.637Z,18.80
2019-03-01T10:40:21.596Z,19.30
2019-03-01T10:42:20.588Z,20.20
2019-03-01T10:43:23.430Z,20.70
2019-03-01T10:44:21.566Z,22.50
2019-03-01T10:45:21.538Z,22.00
2019-03-01T10:46:21.531Z,22.30
2019-03-01T10:47:21.518Z,23.00
2019-03-01T10:48:21.646Z,22.80
2019-03-01T10:49:21.488Z,23.70
2019-03-01T10:50:21.535Z,22.90
2019-03-01T10:51:21.589Z,23.20
2019-03-01T10:52:21.460Z,22.40
2019-03-01T10:53:21.505Z,22.30
2019-03-01T10:54:21.441Z,22.60
2019-03-01T10:55:21.429Z,22.90
2019-03-01T10:56:21.428Z,23.00
2019-03-01T10:57:21.406Z,22.90
2019-03-01T10:58:21.410Z,22.10
2019-03-01T10:59:21.416Z,22.70
2019-03-01T11:00:21.398Z,23.00
2019-03-01T11:01:21.367Z,22.30
2019-03-01T11:02:21.355Z,22.40
2019-03-01T11:03:21.362Z,21.80
2019-03-01T11:04:21.397Z,21.70
2019-03-01T11:05:21.355Z,21.70
2019-03-01T11:06:21.323Z,21.70
2019-03-01T11:07:21.310Z,21.00
2019-03-01T11:08:21.309Z,20.20
2019-03-01T11:09:21.280Z,19.90
2019-03-01T11:10:21.297Z,20.40
2019-03-01T11:11:21.314Z,20.30
2019-03-01T11:12:21.252Z,20.10
2019-03-01T11:13:21.235Z,19.90
2019-03-01T11:14:21.224Z,19.50
2019-03-01T11:15:21.218Z,19.50
2019-03-01T11:16:21.198Z,19.50
2019-03-01T11:17:21.230Z,20.60
2019-03-01T11:18:21.184Z,19.20
2019-03-01T11:19:23.932Z,19.50
2019-03-01T11:20:21.213Z,20.20
2019-03-01T11:21:21.148Z,19.40
2019-03-01T11:22:21.138Z,19.40
2019-03-01T11:23:21.157Z,19.40
2019-03-01T11:24:21.144Z,19.20
2019-03-01T11:25:21.102Z,19.30
2019-03-01T11:26:21.100Z,21.00
2019-03-01T11:27:21.088Z,20.00
2019-03-01T11:28:21.071Z,19.10
2019-03-01T11:29:21.268Z,20.20
2019-03-01T11:30:21.058Z,19.40
2019-03-01T11:31:23.932Z,19.70
2019-03-01T11:32:21.025Z,18.60
2019-03-01T11:33:21.021Z,19.60
2019-03-01T11:34:21.008Z,18.70
2019-03-01T11:35:21.035Z,18.70
2019-03-01T11:36:23.937Z,18.60
2019-03-01T11:37:21.962Z,18.60
2019-03-01T11:38:20.983Z,19.10
2019-03-01T11:39:20.986Z,18.80
2019-03-01T11:40:23.487Z,18.10
2019-03-01T11:41:20.936Z,19.80
2019-03-01T11:42:20.916Z,18.70
2019-03-01T11:43:20.909Z,19.90
2019-03-01T11:44:20.930Z,18.50
2019-03-01T11:45:20.914Z,19.20
2019-03-01T11:46:20.912Z,18.70
2019-03-01T11:47:20.868Z,19.30
2019-03-01T11:48:20.855Z,19.30
2019-03-01T11:49:20.839Z,18.90
2019-03-01T11:50:20.908Z,18.40
2019-03-01T11:51:20.830Z,19.20
2019-03-01T11:52:20.818Z,19.20
2019-03-01T11:53:20.797Z,18.90
2019-03-01T11:54:20.824Z,20.30
2019-03-01T11:55:20.782Z,19.60
2019-03-01T11:56:21.421Z,19.90
2019-03-01T11:57:20.755Z,19.90
2019-03-01T11:58:20.744Z,19.60
2019-03-01T11:59:20.741Z,19.90
2019-03-01T12:00:20.764Z,21.10
2019-03-01T12:01:20.716Z,19.90
2019-03-01T12:02:20.765Z,19.60
2019-03-01T12:03:20.692Z,20.60
2019-03-01T12:04:20.795Z,21.40
2019-03-01T12:05:20.668Z,21.20
2019-03-01T12:06:20.689Z,20.50
2019-03-01T12:07:20.653Z,22.00
2019-03-01T12:08:20.642Z,21.20
2019-03-01T12:09:20.626Z,22.10
2019-03-01T12:10:20.654Z,21.30
2019-03-01T12:11:20.605Z,22.30
2019-03-01T12:12:20.594Z,22.10
2019-03-01T12:13:20.589Z,20.90
2019-03-01T12:14:23.422Z,21.80
2019-03-01T12:15:20.588Z,22.40
2019-03-01T12:16:20.556Z,20.80
2019-03-01T12:17:20.551Z,21.90
2019-03-01T12:18:20.529Z,21.30
2019-03-01T12:19:21.200Z,21.60
2019-03-01T12:20:20.507Z,21.30
2019-03-01T12:21:20.544Z,20.30
2019-03-01T12:22:20.477Z,21.50
2019-03-01T12:23:20.472Z,21.80
2019-03-01T12:24:20.510Z,21.80
2019-03-01T12:25:20.454Z,22.20
2019-03-01T12:26:20.440Z,22.30
2019-03-01T12:27:20.454Z,20.80
2019-03-01T12:28:20.417Z,22.10
2019-03-01T12:29:20.406Z,21.80
2019-03-01T12:30:20.401Z,21.80
2019-03-01T12:31:20.383Z,21.70
2019-03-01T12:32:20.379Z,21.40
2019-03-01T12:33:20.393Z,22.50
2019-03-01T12:34:20.910Z,21.40
2019-03-01T12:35:20.390Z,21.50
2019-03-01T12:36:20.911Z,22.30
2019-03-01T12:37:20.329Z,21.50
2019-03-01T12:38:20.309Z,22.30
2019-03-01T12:39:20.303Z,20.50
2019-03-01T12:40:20.297Z,22.70
2019-03-01T12:41:20.308Z,21.80
2019-03-01T12:42:20.266Z,23.20
2019-03-01T12:43:20.258Z,23.20
2019-03-01T12:44:20.241Z,23.60
2019-03-01T12:45:20.237Z,23.00
2019-03-01T12:46:20.222Z,24.30
2019-03-01T12:47:20.241Z,24.80
2019-03-01T12:48:20.211Z,25.30
2019-03-01T12:49:20.196Z,24.90
2019-03-01T12:50:20.178Z,26.00
2019-03-01T12:51:20.908Z,25.50
2019-03-01T12:52:20.156Z,25.10
2019-03-01T12:53:20.193Z,26.10
2019-03-01T12:54:20.136Z,25.10
2019-03-01T12:55:20.169Z,25.00
2019-03-01T12:56:22.911Z,24.80
2019-03-01T12:57:20.105Z,25.00